Time;durP1;ratioP1;P1;durP2;ratioP2;P2;SDS_P1;SDS_P2;PMS_P1;PMS_P2;Temp;Humidity;BMP_temperature;BMP_pressure;BME280_temperature;BME280_humidity;BME280_pressure;Samples;Min_cycle;Max_cycle;Signal;HPM_P1;HPM_P2
2021/10/30 00:01:59;;;;;;;21.03;14.40;;;;;;;9.89;64.08;96117.28;5071092;28;20452;-66
2021/10/30 00:04:25;;;;;;;24.53;14.50;;;;;;;9.84;64.09;96112.53;5071375;28;20486;-64
2021/10/30 00:06:52;;;;;;;25.20;15.20;;;;;;;9.68;65.24;96111.69;5070179;28;20923;-65
2021/10/30 00:09:17;;;;;;;25.37;16.90;;;;;;;9.75;64.55;96113.59;5068821;28;20821;-65
2021/10/30 00:11:43;;;;;;;22.40;16.00;;;;;;;9.74;64.90;96109.34;5063380;28;20539;-64
2021/10/30 00:14:09;;;;;;;25.70;15.80;;;;;;;9.70;64.91;96111.50;5073121;28;20198;-63
2021/10/30 00:16:34;;;;;;;25.47;15.60;;;;;;;9.71;64.63;96110.50;5062060;28;20678;-66
2021/10/30 00:19:00;;;;;;;23.10;15.80;;;;;;;9.73;64.37;96111.16;5061730;28;20247;-67
2021/10/30 00:21:25;;;;;;;21.77;15.30;;;;;;;9.74;64.30;96111.94;5067860;28;20190;-64
2021/10/30 00:23:51;;;;;;;20.70;14.53;;;;;;;9.69;64.07;96117.72;5050906;28;20182;-66
2021/10/30 00:26:17;;;;;;;20.27;14.53;;;;;;;9.58;64.21;96111.06;5072027;28;20174;-66
2021/10/30 00:28:43;;;;;;;23.80;14.17;;;;;;;9.51;64.47;96110.13;5070078;28;20181;-66
2021/10/30 00:31:08;;;;;;;19.67;14.60;;;;;;;9.48;64.75;96108.69;5071050;28;20199;-65
2021/10/30 00:33:40;;;;;;;22.07;14.17;;;;;;;9.49;64.87;96097.25;5072243;28;20460;-65
2021/10/30 00:36:09;;;;;;;21.27;13.83;;;;;;;9.50;65.26;96106.72;5027055;28;20289;-66
2021/10/30 00:38:36;;;;;;;22.57;14.30;;;;;;;9.53;65.26;96105.56;5049309;28;20532;-65
2021/10/30 00:41:05;;;;;;;25.70;13.67;;;;;;;9.58;65.04;96103.22;5057320;28;20188;-66
2021/10/30 00:43:33;;;;;;;18.50;14.10;;;;;;;9.60;64.57;96092.59;5069961;28;20444;-64
2021/10/30 00:45:58;;;;;;;20.93;12.93;;;;;;;9.62;64.61;96094.03;5061590;28;20427;-65
2021/10/30 00:48:24;;;;;;;19.40;13.80;;;;;;;9.64;64.52;96088.66;5057432;28;20425;-64
2021/10/30 00:50:50;;;;;;;21.57;13.30;;;;;;;9.61;64.30;96087.19;5074741;28;20265;-66
2021/10/30 00:53:17;;;;;;;18.93;12.87;;;;;;;9.63;64.78;96087.81;5069152;28;20727;-65
2021/10/30 00:55:43;;;;;;;23.10;14.27;;;;;;;9.59;64.62;96077.88;5067947;28;20186;-64
2021/10/30 00:58:11;;;;;;;17.70;13.07;;;;;;;9.58;64.31;96071.81;5073116;28;20523;-65
2021/10/30 01:00:36;;;;;;;17.63;12.40;;;;;;;9.59;64.53;96073.47;5071417;28;20416;-65
2021/10/30 01:03:02;;;;;;;17.13;12.97;;;;;;;9.58;64.29;96073.66;5074078;28;20595;-64
2021/10/30 01:05:27;;;;;;;17.93;12.93;;;;;;;9.56;64.23;96076.44;5060387;28;20210;-65
2021/10/30 01:07:53;;;;;;;17.47;13.07;;;;;;;9.58;64.48;96069.22;5055069;28;20262;-65
2021/10/30 01:10:19;;;;;;;16.50;13.03;;;;;;;9.52;64.43;96059.47;5068544;28;20186;-65
2021/10/30 01:12:45;;;;;;;15.73;12.20;;;;;;;9.48;64.32;96063.41;5067273;28;20210;-65
2021/10/30 01:15:11;;;;;;;18.00;13.87;;;;;;;9.44;64.36;96062.13;5073910;28;20423;-66
2021/10/30 01:17:37;;;;;;;24.70;13.87;;;;;;;9.38;64.92;96059.22;5067709;28;20837;-65
2021/10/30 01:20:04;;;;;;;18.43;12.43;;;;;;;9.38;64.73;96061.81;5074115;28;20248;-64
2021/10/30 01:22:30;;;;;;;15.60;12.60;;;;;;;9.27;65.34;96057.00;5065829;28;20198;-64
2021/10/30 01:24:56;;;;;;;17.27;12.90;;;;;;;9.18;65.48;96060.66;5072567;28;20485;-65
2021/10/30 01:27:22;;;;;;;17.97;13.37;;;;;;;9.27;64.69;96053.56;5062669;28;20928;-65
2021/10/30 01:29:49;;;;;;;22.17;14.07;;;;;;;9.31;64.93;96047.00;5070719;28;20247;-65
2021/10/30 01:32:19;;;;;;;19.30;13.20;;;;;;;9.26;64.57;96050.13;5074244;28;20665;-64
2021/10/30 01:34:45;;;;;;;17.77;12.93;;;;;;;9.23;64.06;96045.25;5072648;28;20877;-65
2021/10/30 01:37:11;;;;;;;18.27;12.77;;;;;;;9.21;63.87;96052.44;5073667;28;20460;-65
2021/10/30 01:39:37;;;;;;;17.37;12.33;;;;;;;9.13;64.26;96036.81;5072448;28;20191;-65
2021/10/30 01:42:03;;;;;;;16.90;11.60;;;;;;;9.13;64.57;96044.66;5065568;28;20523;-65
2021/10/30 01:44:28;;;;;;;16.47;12.03;;;;;;;9.12;64.51;96038.63;5073838;28;20472;-64
2021/10/30 01:46:56;;;;;;;19.60;12.40;;;;;;;9.10;64.30;96034.53;5073655;28;20182;-65
2021/10/30 01:49:21;;;;;;;19.70;12.80;;;;;;;8.96;64.81;96029.03;5072083;28;20562;-65
2021/10/30 01:51:47;;;;;;;19.30;12.50;;;;;;;8.94;64.96;96020.59;5073914;28;20437;-65
2021/10/30 01:54:13;;;;;;;19.97;13.60;;;;;;;8.97;64.49;96022.84;5068788;28;20189;-65
2021/10/30 01:56:38;;;;;;;18.93;12.27;;;;;;;8.93;64.73;96018.94;5039214;28;20720;-65
2021/10/30 01:59:04;;;;;;;18.33;11.90;;;;;;;8.97;64.63;96015.00;5051845;28;20191;-65
2021/10/30 02:01:30;;;;;;;19.07;11.93;;;;;;;8.97;64.13;96019.41;5067751;28;20213;-65
2021/10/30 02:03:55;;;;;;;19.00;12.40;;;;;;;8.95;64.78;96026.59;5073725;28;20190;-65
2021/10/30 02:06:21;;;;;;;19.33;12.07;;;;;;;8.92;64.35;96017.31;5073747;28;20174;-65
2021/10/30 02:08:47;;;;;;;21.73;11.87;;;;;;;8.89;64.86;96017.66;5073392;28;20273;-65
2021/10/30 02:11:12;;;;;;;22.00;12.90;;;;;;;8.87;64.64;96014.41;5065323;28;20700;-65
2021/10/30 02:13:38;;;;;;;19.60;11.93;;;;;;;8.83;64.46;96000.88;5072029;28;20205;-65
2021/10/30 02:16:05;;;;;;;19.03;12.97;;;;;;;8.77;65.08;96004.13;5071408;28;20574;-65
2021/10/30 02:18:30;;;;;;;19.17;13.63;;;;;;;8.71;64.97;96005.63;5050023;28;20183;-65
2021/10/30 02:20:56;;;;;;;17.87;13.13;;;;;;;8.67;65.25;96009.59;5071452;28;20452;-66
2021/10/30 02:23:22;;;;;;;18.93;13.70;;;;;;;8.65;65.56;95995.88;5057256;28;20228;-64
2021/10/30 02:25:47;;;;;;;20.27;14.70;;;;;;;8.63;65.61;95997.03;5064534;28;20269;-65
2021/10/30 02:28:13;;;;;;;19.50;14.20;;;;;;;8.59;65.65;95983.50;5072361;28;20189;-64
2021/10/30 02:30:38;;;;;;;21.77;14.97;;;;;;;8.65;66.02;95984.59;5071664;28;20198;-65
2021/10/30 02:33:04;;;;;;;23.40;15.10;;;;;;;8.63;66.11;95991.81;5072253;28;20288;-65
2021/10/30 02:35:30;;;;;;;18.13;13.70;;;;;;;8.57;65.62;95994.13;5075440;28;20214;-65
2021/10/30 02:37:56;;;;;;;22.03;14.90;;;;;;;8.30;66.90;95983.06;5068151;28;20453;-65
2021/10/30 02:40:21;;;;;;;21.27;15.23;;;;;;;8.39;66.86;95983.88;5067591;28;20182;-64
2021/10/30 02:42:47;;;;;;;18.93;14.33;;;;;;;8.44;66.57;95985.97;5060868;28;20206;-65
2021/10/30 02:45:13;;;;;;;19.53;14.67;;;;;;;8.49;66.16;95986.31;5072420;28;20221;-64
2021/10/30 02:47:38;;;;;;;25.27;14.10;;;;;;;8.48;66.44;95976.03;5066351;28;20199;-64
2021/10/30 02:50:04;;;;;;;21.50;14.50;;;;;;;8.26;66.73;95973.16;5049621;28;20187;-65
2021/10/30 02:52:30;;;;;;;19.10;13.50;;;;;;;8.21;66.30;95963.22;5058582;28;20221;-64
2021/10/30 02:54:55;;;;;;;23.17;14.20;;;;;;;8.15;66.89;95971.69;5064986;28;20180;-64
2021/10/30 02:57:21;;;;;;;21.60;14.00;;;;;;;8.24;67.29;95964.66;5070240;28;20190;-65
2021/10/30 02:59:47;;;;;;;20.00;13.53;;;;;;;8.10;67.23;95950.53;5060338;28;20191;-65
2021/10/30 03:02:12;;;;;;;17.70;12.30;;;;;;;8.19;66.78;95943.50;5070571;28;20202;-65
2021/10/30 03:04:38;;;;;;;17.83;13.30;;;;;;;8.28;66.80;95945.88;5071065;28;20190;-65
2021/10/30 03:07:03;;;;;;;23.00;13.77;;;;;;;8.29;66.49;95941.50;5054183;28;20182;-65
2021/10/30 03:09:29;;;;;;;17.90;13.03;;;;;;;8.33;66.36;95934.94;5065131;28;20673;-65
2021/10/30 03:11:55;;;;;;;19.00;13.60;;;;;;;8.33;66.02;95929.72;5056822;28;20623;-66
2021/10/30 03:14:21;;;;;;;19.23;11.93;;;;;;;8.28;66.00;95929.41;5072190;28;20224;-66
2021/10/30 03:16:46;;;;;;;19.23;12.73;;;;;;;8.27;65.65;95925.97;5065876;28;20851;-66
2021/10/30 03:19:12;;;;;;;16.40;10.90;;;;;;;8.22;65.30;95920.47;5059448;28;20560;-65
2021/10/30 03:21:38;;;;;;;16.37;11.40;;;;;;;8.21;65.81;95925.84;5061088;28;20229;-65
2021/10/30 03:24:04;;;;;;;15.60;12.00;;;;;;;8.22;65.91;95920.47;5070268;28;20214;-65
2021/10/30 03:26:29;;;;;;;15.90;10.97;;;;;;;8.21;66.16;95915.41;5071401;28;20185;-65
2021/10/30 03:28:55;;;;;;;18.53;11.93;;;;;;;8.23;65.73;95914.28;5070522;28;20436;-66
2021/10/30 03:31:21;;;;;;;20.40;10.83;;;;;;;8.23;65.57;95909.03;5063995;28;20255;-64
2021/10/30 03:33:48;;;;;;;15.20;11.93;;;;;;;8.24;65.18;95909.84;5044309;28;20708;-65
2021/10/30 03:36:14;;;;;;;16.20;11.87;;;;;;;8.21;65.59;95907.56;5060766;28;20718;-65
2021/10/30 03:38:39;;;;;;;13.40;10.33;;;;;;;8.17;64.95;95908.91;5063017;28;20440;-65
2021/10/30 03:41:05;;;;;;;15.13;11.13;;;;;;;8.10;65.46;95909.56;5064238;28;20881;-65
2021/10/30 03:43:31;;;;;;;15.43;11.13;;;;;;;8.07;66.58;95915.13;5071240;28;20205;-65
2021/10/30 03:45:56;;;;;;;14.40;10.97;;;;;;;8.13;65.91;95908.41;5053412;28;20179;-65
2021/10/30 03:48:22;;;;;;;15.90;11.87;;;;;;;8.18;66.17;95903.50;5066609;28;20217;-65
2021/10/30 03:50:50;;;;;;;17.30;11.63;;;;;;;8.15;65.44;95899.44;5059403;28;20218;-65
2021/10/30 03:53:17;;;;;;;22.13;11.83;;;;;;;8.17;65.52;95888.84;5063343;28;20585;-65
2021/10/30 03:55:43;;;;;;;20.10;13.63;;;;;;;8.00;66.86;95894.09;5070110;28;20523;-65
2021/10/30 03:58:08;;;;;;;19.37;13.33;;;;;;;8.08;66.72;95895.88;5053648;28;20455;-65
2021/10/30 04:00:34;;;;;;;22.77;12.87;;;;;;;8.15;66.15;95886.41;5070438;28;20190;-65
2021/10/30 04:03:00;;;;;;;20.37;14.13;;;;;;;8.14;66.17;95889.16;5060707;28;20574;-65
2021/10/30 04:05:25;;;;;;;23.00;14.13;;;;;;;8.13;66.36;95879.69;5054806;28;20655;-65
2021/10/30 04:07:51;;;;;;;17.77;12.73;;;;;;;8.05;66.35;95877.13;5051303;28;20687;-66
2021/10/30 04:10:17;;;;;;;18.30;13.10;;;;;;;7.97;67.03;95884.03;5066905;28;20274;-65
2021/10/30 04:12:43;;;;;;;17.90;12.93;;;;;;;7.96;66.81;95871.97;5050696;28;20206;-65
2021/10/30 04:15:09;;;;;;;19.47;13.00;;;;;;;8.00;66.62;95862.78;5038218;28;20443;-64
2021/10/30 04:17:35;;;;;;;16.30;12.33;;;;;;;8.03;66.32;95866.06;5023722;28;20203;-65
2021/10/30 04:20:01;;;;;;;21.67;14.30;;;;;;;7.98;66.54;95863.94;5049106;28;20434;-66
2021/10/30 04:22:26;;;;;;;18.37;12.20;;;;;;;7.93;66.81;95845.41;5058397;28;20282;-65
2021/10/30 04:24:53;;;;;;;22.53;14.13;;;;;;;7.87;67.15;95856.50;5051243;28;20198;-65
2021/10/30 04:27:18;;;;;;;24.07;15.17;;;;;;;7.73;67.88;95851.00;5062440;28;20175;-65
2021/10/30 04:29:44;;;;;;;23.27;14.60;;;;;;;7.80;68.26;95846.75;5062441;28;20519;-64
2021/10/30 04:32:11;;;;;;;22.80;14.90;;;;;;;7.88;67.75;95843.28;5050507;28;20202;-65
2021/10/30 04:34:52;;;;;;;22.00;14.83;;;;;;;7.94;67.40;95837.41;5050549;28;20592;-64
2021/10/30 04:37:18;;;;;;;20.93;14.43;;;;;;;7.90;67.46;95830.88;5037084;28;20963;-65
2021/10/30 04:39:48;;;;;;;19.90;13.93;;;;;;;7.84;67.67;95819.31;5049599;28;20491;-65
2021/10/30 04:42:14;;;;;;;26.30;15.13;;;;;;;7.85;67.03;95814.94;5041455;28;20206;-65
2021/10/30 04:44:40;;;;;;;20.77;13.60;;;;;;;7.86;67.33;95810.53;5030559;28;20430;-65
2021/10/30 04:47:06;;;;;;;19.27;13.97;;;;;;;7.83;67.06;95817.69;5044466;28;21168;-64
2021/10/30 04:49:33;;;;;;;21.70;14.00;;;;;;;7.71;66.87;95811.22;5040922;28;20453;-63
2021/10/30 04:51:59;;;;;;;26.10;15.47;;;;;;;7.62;67.20;95822.66;5041397;28;20446;-64
2021/10/30 04:54:25;;;;;;;21.83;14.97;;;;;;;7.36;67.82;95823.69;5056002;28;20527;-64
2021/10/30 04:56:51;;;;;;;20.33;14.47;;;;;;;7.48;67.39;95826.78;5050189;28;20203;-64
2021/10/30 04:59:16;;;;;;;18.77;14.03;;;;;;;7.53;67.30;95822.69;5049116;28;20487;-64
2021/10/30 05:01:42;;;;;;;25.77;15.13;;;;;;;7.51;67.61;95823.81;5049310;28;20722;-64
2021/10/30 05:04:07;;;;;;;25.37;15.70;;;;;;;7.48;67.73;95824.19;5052541;28;20183;-64
2021/10/30 05:06:33;;;;;;;25.27;15.13;;;;;;;7.42;67.82;95828.25;5065425;28;20180;-63
2021/10/30 05:08:58;;;;;;;22.80;15.60;;;;;;;7.43;67.82;95821.25;5060613;28;20180;-63
2021/10/30 05:11:24;;;;;;;23.10;16.43;;;;;;;7.41;67.88;95824.03;5071891;28;20211;-63
2021/10/30 05:13:50;;;;;;;23.70;16.00;;;;;;;7.28;68.20;95802.88;5061340;28;20183;-63
2021/10/30 05:16:15;;;;;;;24.07;15.97;;;;;;;7.41;68.22;95808.38;5037363;28;20281;-65
2021/10/30 05:18:41;;;;;;;25.33;17.10;;;;;;;7.43;67.74;95798.63;5049908;28;20183;-64
2021/10/30 05:21:06;;;;;;;23.80;16.53;;;;;;;7.37;68.35;95801.88;5050383;28;20191;-65
2021/10/30 05:23:37;;;;;;;25.07;16.00;;;;;;;7.35;68.43;95799.44;5047051;28;20250;-64
2021/10/30 05:26:03;;;;;;;22.77;15.73;;;;;;;7.41;68.22;95803.19;5048912;28;20606;-64
2021/10/30 05:28:29;;;;;;;20.93;15.00;;;;;;;7.44;68.10;95794.19;5050080;28;20426;-64
2021/10/30 05:30:54;;;;;;;22.33;15.10;;;;;;;7.47;67.93;95796.47;5049710;28;20912;-64
2021/10/30 05:33:20;;;;;;;23.43;16.50;;;;;;;7.45;67.48;95794.03;5053225;28;20282;-66
2021/10/30 05:35:46;;;;;;;21.60;16.00;;;;;;;7.34;67.91;95783.97;5053979;28;20230;-64
2021/10/30 05:38:13;;;;;;;21.20;14.90;;;;;;;7.06;68.91;95776.50;5045724;28;20208;-65
2021/10/30 05:40:39;;;;;;;21.87;14.93;;;;;;;7.29;68.47;95786.25;5054152;28;20179;-65
2021/10/30 05:43:05;;;;;;;23.73;14.80;;;;;;;7.37;68.13;95776.59;5060731;28;20493;-64
2021/10/30 05:45:31;;;;;;;23.47;15.33;;;;;;;7.32;68.04;95780.69;5054111;28;20256;-65
2021/10/30 05:47:56;;;;;;;27.10;15.40;;;;;;;7.38;68.40;95786.06;5052955;28;20455;-65
2021/10/30 05:50:22;;;;;;;24.40;15.97;;;;;;;7.49;68.02;95784.09;5052304;28;20183;-65
2021/10/30 05:52:48;;;;;;;24.47;15.77;;;;;;;7.47;67.57;95773.81;5044255;28;20681;-64
2021/10/30 05:55:14;;;;;;;23.40;15.60;;;;;;;7.49;67.39;95781.50;5057426;28;20186;-65
2021/10/30 05:57:39;;;;;;;24.87;15.00;;;;;;;7.49;67.64;95787.50;5052906;28;20348;-65
2021/10/30 06:00:05;;;;;;;23.80;15.80;;;;;;;7.31;67.62;95787.72;5043167;28;20193;-65
2021/10/30 06:02:31;;;;;;;23.03;16.10;;;;;;;7.40;67.43;95783.31;5052327;28;20681;-65
2021/10/30 06:04:56;;;;;;;26.20;15.63;;;;;;;7.41;67.71;95771.06;5054007;28;20524;-64
2021/10/30 06:07:22;;;;;;;34.03;16.43;;;;;;;7.37;67.85;95770.59;5053261;28;20501;-65
2021/10/30 06:09:48;;;;;;;26.20;15.40;;;;;;;7.14;69.31;95760.06;5053309;28;20261;-64
2021/10/30 06:12:14;;;;;;;22.43;14.70;;;;;;;7.13;69.56;95758.44;5046491;28;21030;-64
2021/10/30 06:14:39;;;;;;;26.77;16.30;;;;;;;7.19;68.77;95745.53;5053261;28;20183;-64
2021/10/30 06:17:05;;;;;;;21.23;15.13;;;;;;;7.29;68.77;95734.94;5047000;28;20248;-66
2021/10/30 06:19:31;;;;;;;23.73;16.47;;;;;;;7.40;67.91;95731.19;5055591;28;20278;-64
2021/10/30 06:21:57;;;;;;;31.33;16.73;;;;;;;7.40;68.20;95733.78;5066030;28;20222;-65
2021/10/30 06:24:22;;;;;;;21.70;16.27;;;;;;;7.50;67.77;95733.56;5056627;28;20257;-65
2021/10/30 06:26:48;;;;;;;22.73;16.40;;;;;;;7.48;67.74;95725.91;5073085;28;20179;-64
2021/10/30 06:29:14;;;;;;;23.40;16.93;;;;;;;7.55;67.85;95727.88;5072770;28;20313;-65
2021/10/30 06:31:39;;;;;;;25.63;15.53;;;;;;;7.56;67.57;95729.50;5072444;28;20622;-65
2021/10/30 06:34:05;;;;;;;27.03;16.00;;;;;;;7.49;67.54;95722.34;5056198;28;20192;-65
2021/10/30 06:36:31;;;;;;;23.60;16.37;;;;;;;7.49;67.22;95721.53;5048819;28;20241;-65
2021/10/30 06:38:57;;;;;;;24.63;15.40;;;;;;;7.47;67.03;95718.28;5072367;28;20191;-65
2021/10/30 06:41:22;;;;;;;23.00;15.40;;;;;;;7.41;67.30;95717.16;5073231;28;20431;-65
2021/10/30 06:43:48;;;;;;;25.70;15.40;;;;;;;7.40;67.41;95715.53;5070756;28;20186;-66
2021/10/30 06:46:17;;;;;;;23.40;14.73;;;;;;;7.49;67.48;95719.72;5051480;28;21013;-65
2021/10/30 06:48:42;;;;;;;30.17;15.20;;;;;;;7.40;68.02;95715.53;5045874;28;20443;-66
2021/10/30 06:51:09;;;;;;;23.13;15.17;;;;;;;7.37;68.07;95715.88;5061623;28;20546;-65
2021/10/30 06:53:35;;;;;;;28.93;15.43;;;;;;;7.51;67.27;95701.31;5072194;28;20198;-65
2021/10/30 06:56:01;;;;;;;24.40;15.53;;;;;;;7.53;67.34;95704.56;5065753;28;20421;-65
2021/10/30 06:58:28;;;;;;;25.23;16.60;;;;;;;7.47;67.42;95700.03;5070835;28;20622;-65
2021/10/30 07:00:55;;;;;;;27.33;16.80;;;;;;;7.61;67.03;95696.72;5071068;28;20602;-66
2021/10/30 07:03:20;;;;;;;22.63;15.73;;;;;;;7.66;67.19;95704.03;5062279;28;20501;-65
2021/10/30 07:05:47;;;;;;;23.10;14.70;;;;;;;7.68;66.81;95708.06;5064481;28;20452;-65
2021/10/30 07:08:12;;;;;;;21.00;15.60;;;;;;;7.90;66.47;95713.50;5070544;28;20210;-65
2021/10/30 07:10:38;;;;;;;29.63;15.77;;;;;;;8.10;65.73;95716.47;5071788;28;20479;-64
2021/10/30 07:13:03;;;;;;;23.40;15.37;;;;;;;8.18;65.87;95712.19;5071272;28;20271;-66
2021/10/30 07:15:29;;;;;;;22.40;14.90;;;;;;;8.43;65.61;95713.66;5055737;28;20184;-65
2021/10/30 07:17:55;;;;;;;21.70;15.73;;;;;;;8.39;65.29;95730.63;5057520;28;20221;-65
2021/10/30 07:20:20;;;;;;;19.70;14.20;;;;;;;8.44;65.47;95728.31;5050760;28;20188;-65
2021/10/30 07:22:48;;;;;;;25.20;16.30;;;;;;;8.63;64.56;95728.84;5057122;28;20255;-64
2021/10/30 07:25:15;;;;;;;20.57;15.27;;;;;;;8.72;63.94;95724.38;5049337;28;20190;-65
2021/10/30 07:27:42;;;;;;;19.90;14.20;;;;;;;8.71;64.05;95723.53;5045616;28;20457;-66
2021/10/30 07:30:10;;;;;;;21.70;14.53;;;;;;;8.91;64.13;95728.28;5049307;28;20420;-65
2021/10/30 07:32:36;;;;;;;23.90;15.00;;;;;;;9.10;63.52;95726.97;5044325;28;20465;-65
2021/10/30 07:35:03;;;;;;;22.90;13.93;;;;;;;9.37;63.11;95728.13;5049166;28;20437;-66
2021/10/30 07:37:29;;;;;;;22.60;15.17;;;;;;;9.36;62.75;95728.31;5045140;28;20460;-65
2021/10/30 07:39:55;;;;;;;20.87;13.73;;;;;;;9.51;62.92;95723.06;5047103;28;20442;-65
2021/10/30 07:42:20;;;;;;;19.33;13.20;;;;;;;9.67;62.39;95704.56;5047137;28;20457;-63
2021/10/30 07:44:46;;;;;;;21.13;13.87;;;;;;;9.86;62.70;95710.19;5045695;28;20274;-66
2021/10/30 07:47:12;;;;;;;22.53;14.80;;;;;;;9.93;62.46;95700.63;5047366;28;20179;-63
2021/10/30 07:49:39;;;;;;;19.17;13.73;;;;;;;9.99;62.64;95699.88;5044370;28;20634;-65
2021/10/30 07:52:06;;;;;;;24.33;15.03;;;;;;;10.10;61.89;95703.00;5047995;28;20452;-65
2021/10/30 07:54:33;;;;;;;19.20;13.87;;;;;;;10.17;61.58;95698.66;5047485;28;20453;-65
2021/10/30 07:56:59;;;;;;;18.27;13.83;;;;;;;10.31;61.58;95676.03;5057730;28;20454;-65
2021/10/30 07:59:25;;;;;;;23.00;14.83;;;;;;;10.44;61.27;95691.88;5041897;28;20459;-66
2021/10/30 08:01:52;;;;;;;22.83;14.67;;;;;;;10.46;60.90;95683.81;5062011;28;20478;-66
2021/10/30 08:04:18;;;;;;;28.57;13.07;;;;;;;10.64;60.91;95683.38;5060016;28;20539;-65
2021/10/30 08:06:44;;;;;;;25.63;13.83;;;;;;;10.58;60.86;95686.75;5054588;28;20520;-66
2021/10/30 08:09:10;;;;;;;28.00;14.30;;;;;;;10.74;60.48;95675.19;5051695;28;20463;-64
2021/10/30 08:11:36;;;;;;;19.73;13.50;;;;;;;10.86;60.00;95668.41;5054423;28;20489;-64
2021/10/30 08:14:02;;;;;;;24.23;13.97;;;;;;;11.09;59.75;95674.41;5056728;28;20190;-66
2021/10/30 08:16:28;;;;;;;19.27;13.70;;;;;;;11.25;59.13;95678.53;5067678;28;20534;-64
2021/10/30 08:18:54;;;;;;;24.53;13.50;;;;;;;11.35;59.75;95674.56;5048003;28;20636;-66
2021/10/30 08:21:20;;;;;;;21.10;13.67;;;;;;;11.49;58.85;95678.03;5054463;28;20504;-65
2021/10/30 08:23:47;;;;;;;16.80;12.90;;;;;;;11.65;58.27;95679.53;5048009;28;20210;-67
2021/10/30 08:26:12;;;;;;;19.97;13.00;;;;;;;11.55;58.23;95688.75;5044814;28;20425;-65
2021/10/30 08:28:38;;;;;;;18.37;13.00;;;;;;;11.70;58.36;95689.44;5049162;28;20734;-67
2021/10/30 08:31:04;;;;;;;21.83;13.33;;;;;;;11.71;58.54;95692.84;5049339;28;20191;-66
2021/10/30 08:33:29;;;;;;;18.10;13.17;;;;;;;11.71;58.25;95696.31;5049831;28;20622;-66
2021/10/30 08:35:55;;;;;;;23.37;13.87;;;;;;;11.80;57.85;95695.13;5048848;28;20198;-64
2021/10/30 08:38:20;;;;;;;18.97;14.00;;;;;;;11.76;57.87;95701.75;5051795;28;20536;-65
2021/10/30 08:40:46;;;;;;;54.13;31.23;;;;;;;11.89;57.58;95698.38;5035160;28;20206;-65
2021/10/30 08:43:22;;;;;;;18.20;13.70;;;;;;;11.91;57.85;95685.84;5052059;28;20611;-64
2021/10/30 08:45:52;;;;;;;21.40;13.50;;;;;;;12.14;57.55;95684.75;5044735;28;20199;-66
2021/10/30 08:48:21;;;;;;;19.20;13.53;;;;;;;12.00;57.96;95683.88;5043910;28;20471;-64
2021/10/30 08:50:47;;;;;;;20.87;13.50;;;;;;;12.19;57.44;95671.00;5043959;28;20430;-65
2021/10/30 08:53:13;;;;;;;20.23;12.10;;;;;;;12.36;57.00;95672.22;5042848;28;20495;-66
2021/10/30 08:55:39;;;;;;;17.87;12.53;;;;;;;12.13;57.10;95668.16;5053419;28;20794;-64
2021/10/30 08:58:06;;;;;;;17.17;13.17;;;;;;;12.51;57.07;95664.16;5052868;28;20462;-65
2021/10/30 09:00:37;;;;;;;35.87;15.93;;;;;;;12.48;56.38;95659.31;5059058;28;20195;-65
2021/10/30 09:03:04;;;;;;;27.27;13.77;;;;;;;12.54;56.78;95657.69;5060547;28;20445;-66
2021/10/30 09:05:31;;;;;;;19.67;13.40;;;;;;;12.54;56.72;95668.19;5063003;28;20506;-67
2021/10/30 09:07:59;;;;;;;16.13;12.47;;;;;;;12.75;56.20;95664.56;5067669;28;20428;-66
2021/10/30 09:10:28;;;;;;;18.97;13.17;;;;;;;12.82;55.62;95664.56;5062890;28;20812;-66
2021/10/30 09:12:55;;;;;;;19.73;14.77;;;;;;;12.90;55.53;95662.53;5068063;28;20449;-67
2021/10/30 09:15:49;;;;;;;19.07;14.40;;;;;;;13.00;55.43;95669.19;5049735;28;20423;-66
2021/10/30 09:18:21;;;;;;;21.73;13.30;;;;;;;13.10;55.35;95666.94;5067809;28;20445;-66
2021/10/30 09:20:51;;;;;;;19.53;12.20;;;;;;;12.94;55.01;95660.28;5070768;28;20440;-65
2021/10/30 09:23:17;;;;;;;21.67;12.57;;;;;;;13.15;54.78;95658.41;5063863;28;20438;-65
2021/10/30 09:25:59;;;;;;;21.90;13.30;;;;;;;13.28;54.96;95658.38;5032076;28;20461;-66
2021/10/30 09:28:26;;;;;;;23.63;14.17;;;;;;;13.36;54.66;95665.25;5054780;28;20473;-65
2021/10/30 09:30:58;;;;;;;24.10;12.93;;;;;;;13.42;54.54;95669.69;5072685;28;20427;-64
2021/10/30 09:33:25;;;;;;;20.80;12.53;;;;;;;13.25;54.29;95669.31;5062700;28;20585;-65
2021/10/30 09:35:51;;;;;;;17.13;12.27;;;;;;;13.30;54.54;95666.06;5056526;28;20447;-66
2021/10/30 09:38:28;;;;;;;18.00;12.00;;;;;;;13.46;53.68;95660.38;5076127;28;20457;-64
2021/10/30 09:40:54;;;;;;;23.33;11.90;;;;;;;13.57;53.24;95666.81;5058556;28;20202;-64
2021/10/30 09:43:21;;;;;;;14.57;10.33;;;;;;;13.66;52.46;95672.66;5075448;28;20445;-68
2021/10/30 09:45:55;;;;;;;22.93;13.80;;;;;;;13.72;52.60;95669.19;5056420;28;20237;-66
2021/10/30 09:48:26;;;;;;;25.97;13.90;;;;;;;13.79;52.48;95664.72;5068650;28;20456;-65
2021/10/30 09:50:54;;;;;;;32.40;12.47;;;;;;;13.90;51.71;95659.78;5066305;28;20429;-65
2021/10/30 09:53:27;;;;;;;17.47;11.77;;;;;;;13.91;52.02;95664.84;5073740;28;20448;-68
2021/10/30 09:55:54;;;;;;;25.43;13.40;;;;;;;13.98;52.03;95663.00;5055342;28;20431;-66
2021/10/30 09:58:32;;;;;;;21.23;13.23;;;;;;;14.06;51.89;95663.75;5072142;28;20429;-66
2021/10/30 10:01:06;;;;;;;18.57;12.00;;;;;;;13.98;51.85;95663.00;5073513;28;20506;-67
2021/10/30 10:03:33;;;;;;;25.03;13.20;;;;;;;13.85;53.51;95655.16;5072095;28;20456;-67
2021/10/30 10:06:01;;;;;;;22.63;14.67;;;;;;;13.86;54.13;95659.38;5056669;28;20489;-65
2021/10/30 10:08:27;;;;;;;22.60;13.57;;;;;;;13.88;54.39;95659.19;5031560;28;20452;-65
2021/10/30 10:10:57;;;;;;;19.87;13.33;;;;;;;13.85;54.49;95670.97;5072033;28;20456;-67
2021/10/30 10:13:23;;;;;;;22.83;12.40;;;;;;;13.86;54.95;95671.75;5072097;28;20202;-67
2021/10/30 10:15:50;;;;;;;23.53;13.80;;;;;;;13.81;54.77;95680.28;5072281;28;20433;-68
2021/10/30 10:18:15;;;;;;;30.53;15.23;;;;;;;13.89;55.00;95669.50;5047734;28;20520;-65
2021/10/30 10:20:41;;;;;;;23.47;14.00;;;;;;;13.95;54.83;95673.94;5034987;28;20433;-66
2021/10/30 10:23:07;;;;;;;25.47;14.00;;;;;;;14.02;54.48;95673.91;5058026;28;20215;-64
2021/10/30 10:25:36;;;;;;;22.97;12.00;;;;;;;14.04;53.57;95677.13;5055524;28;20320;-64
2021/10/30 10:28:36;;;;;;;34.43;18.53;;;;;;;14.08;53.47;95678.31;5052008;28;20175;-66
2021/10/30 10:31:10;;;;;;;14.40;10.97;;;;;;;14.18;53.18;95677.84;5054314;28;20415;-64
2021/10/30 10:33:37;;;;;;;14.90;10.17;;;;;;;14.27;52.56;95678.41;5069735;28;21011;-65
2021/10/30 10:36:20;;;;;;;19.23;12.23;;;;;;;14.27;53.25;95670.50;5071313;28;20483;-65
2021/10/30 10:38:58;;;;;;;21.57;12.20;;;;;;;14.20;54.50;95670.56;5063098;28;20956;-66
2021/10/30 10:41:48;;;;;;;18.00;13.53;;;;;;;13.81;56.30;95669.75;5059053;28;20424;-65
2021/10/30 10:44:38;;;;;;;19.80;13.70;;;;;;;13.76;56.42;95670.38;5062335;28;20427;-70
2021/10/30 10:47:04;;;;;;;20.27;13.80;;;;;;;13.65;56.58;95671.03;5071303;28;20425;-67
2021/10/30 10:49:37;;;;;;;22.80;14.30;;;;;;;13.69;56.76;95658.25;5058419;28;20862;-65
2021/10/30 10:52:28;;;;;;;25.10;15.87;;;;;;;13.78;56.93;95654.38;5069529;28;20206;-66
2021/10/30 10:54:56;;;;;;;20.40;13.80;;;;;;;13.98;56.28;95655.09;5072670;28;20428;-67
2021/10/30 10:57:37;;;;;;;24.17;16.97;;;;;;;13.83;56.47;95665.09;5072266;28;20487;-65
2021/10/30 11:00:06;;;;;;;25.10;14.63;;;;;;;13.89;56.53;95661.59;5071578;28;20424;-66
2021/10/30 11:02:34;;;;;;;26.27;15.00;;;;;;;13.87;56.79;95663.63;5061228;28;20491;-66
2021/10/30 11:05:09;;;;;;;22.10;15.20;;;;;;;14.01;56.21;95674.09;5061449;28;20923;-66
2021/10/30 11:07:42;;;;;;;18.40;13.30;;;;;;;14.07;55.90;95681.97;5071986;28;20423;-65
2021/10/30 11:10:10;;;;;;;48.80;20.83;;;;;;;13.66;56.87;95691.88;5063793;28;20428;-67
2021/10/30 11:12:35;;;;;;;22.03;15.57;;;;;;;13.73;56.63;95691.84;5072382;28;20448;-65
2021/10/30 11:15:09;;;;;;;24.50;16.00;;;;;;;13.90;56.25;95686.13;5071008;28;20853;-66
2021/10/30 11:20:34;;;;;;;22.40;15.93;;;;;;;14.09;56.08;95694.94;5041519;28;20494;-65
2021/10/30 11:23:01;;;;;;;27.20;16.30;;;;;;;14.13;55.76;95688.22;5064310;28;20456;-67
2021/10/30 11:25:31;;;;;;;23.93;15.30;;;;;;;14.21;55.67;95693.25;5073053;28;20780;-66